createdAt,value
2019-04-03T00:01:42.669Z,72.44
2019-04-03T00:04:11.931Z,72.52
2019-04-03T00:06:41.510Z,72.68
2019-04-03T00:09:11.023Z,72.67
2019-04-03T00:11:40.389Z,72.60
2019-04-03T00:14:12.209Z,72.55
2019-04-03T00:16:41.317Z,72.74
2019-04-03T00:19:10.898Z,72.81
2019-04-03T00:21:40.599Z,72.79
2019-04-03T00:24:09.861Z,72.89
2019-04-03T00:26:39.129Z,73.14
2019-04-03T00:29:08.797Z,73.10
2019-04-03T00:31:38.358Z,73.03
2019-04-03T00:34:07.667Z,73.01
2019-04-03T00:36:37.295Z,73.00
2019-04-03T00:39:09.417Z,73.02
2019-04-03T00:41:38.677Z,73.10
2019-04-03T00:44:07.969Z,73.00
2019-04-03T00:46:37.566Z,72.76
2019-04-03T00:49:06.786Z,72.84
2019-04-03T00:51:36.206Z,72.92
2019-04-03T00:54:05.490Z,72.93
2019-04-03T00:56:35.016Z,72.75
2019-04-03T00:59:04.509Z,72.97
2019-04-03T01:01:34.104Z,73.08
2019-04-03T01:04:03.356Z,73.19
2019-04-03T01:06:32.635Z,71.55
2019-04-03T01:09:01.872Z,69.08
2019-04-03T01:11:31.166Z,67.31
2019-04-03T01:14:01.604Z,66.02
2019-04-03T01:16:33.016Z,66.40
2019-04-03T01:19:05.253Z,66.82
2019-04-03T01:21:37.248Z,66.74
2019-04-03T01:24:08.358Z,67.32
2019-04-03T01:26:37.310Z,67.29
2019-04-03T01:29:08.290Z,67.46
2019-04-03T01:31:37.487Z,67.79
2019-04-03T01:34:08.266Z,68.10
2019-04-03T01:36:38.118Z,68.50
2019-04-03T01:39:08.412Z,68.97
2019-04-03T01:41:37.621Z,69.78
2019-04-03T01:44:07.204Z,70.37
2019-04-03T01:46:36.419Z,70.79
2019-04-03T01:49:05.661Z,71.05
2019-04-03T01:51:34.886Z,71.50
2019-04-03T01:54:04.184Z,71.96
2019-04-03T01:56:33.897Z,72.18
2019-04-03T01:59:06.574Z,72.69
2019-04-03T02:01:37.917Z,72.80
2019-04-03T02:04:06.723Z,73.17
2019-04-03T02:06:36.035Z,73.47
2019-04-03T02:09:08.361Z,73.64
2019-04-03T02:11:38.043Z,73.76
2019-04-03T02:14:08.441Z,74.03
2019-04-03T02:16:39.571Z,74.10
2019-04-03T02:19:09.343Z,74.15
2019-04-03T02:21:39.643Z,74.10
2019-04-03T02:24:09.662Z,74.09
2019-04-03T02:26:38.941Z,74.15
2019-04-03T02:29:09.259Z,74.21
2019-04-03T02:31:39.321Z,74.09
2019-04-03T02:34:08.912Z,74.21
2019-04-03T02:36:38.541Z,74.09
2019-04-03T02:39:09.639Z,74.19
2019-04-03T02:41:39.193Z,74.21
2019-04-03T02:44:08.511Z,74.42
2019-04-03T02:46:38.080Z,74.36
2019-04-03T02:49:10.160Z,74.26
2019-04-03T02:51:39.048Z,73.90
2019-04-03T02:54:17.568Z,73.87
2019-04-03T02:56:47.020Z,73.94
2019-04-03T02:59:16.690Z,74.19
2019-04-03T03:01:46.713Z,74.34
2019-04-03T03:04:16.443Z,74.45
2019-04-03T03:06:45.895Z,74.38
2019-04-03T03:09:15.467Z,74.49
2019-04-03T03:11:45.249Z,74.49
2019-04-03T03:14:15.502Z,74.27
2019-04-03T03:16:49.227Z,74.27
2019-04-03T03:19:17.543Z,74.46
2019-04-03T03:21:46.978Z,74.71
2019-04-03T03:24:16.579Z,74.66
2019-04-03T03:26:45.958Z,74.43
2019-04-03T03:29:19.469Z,74.43
2019-04-03T03:32:04.771Z,74.14
2019-04-03T03:34:43.652Z,74.42
2019-04-03T03:36:50.832Z,74.87
2019-04-03T03:39:20.821Z,75.03
2019-04-03T03:41:51.164Z,74.97
2019-04-03T03:44:21.661Z,75.25
2019-04-03T03:46:52.284Z,75.06
2019-04-03T03:49:22.258Z,74.68
2019-04-03T03:51:51.600Z,74.47
2019-04-03T03:54:20.840Z,74.53
2019-04-03T03:56:50.509Z,74.45
2019-04-03T03:59:22.085Z,74.55
2019-04-03T04:01:51.789Z,74.59
2019-04-03T04:04:21.835Z,75.06
2019-04-03T04:06:51.658Z,75.38
2019-04-03T04:09:23.291Z,75.52
2019-04-03T04:11:53.155Z,75.65
2019-04-03T04:14:23.507Z,75.63
2019-04-03T04:16:53.563Z,75.69
2019-04-03T04:19:23.535Z,75.60
2019-04-03T04:21:54.020Z,75.56
2019-04-03T04:24:23.671Z,75.81
2019-04-03T04:26:53.538Z,76.05
2019-04-03T04:29:22.942Z,76.20
2019-04-03T04:31:52.984Z,76.10
2019-04-03T04:34:22.215Z,76.18
2019-04-03T04:36:53.081Z,76.13
2019-04-03T04:39:24.041Z,76.06
2019-04-03T04:41:53.983Z,75.93
2019-04-03T04:44:23.213Z,75.86
2019-04-03T04:46:52.496Z,75.91
2019-04-03T04:49:22.648Z,75.80
2019-04-03T04:51:52.586Z,75.72
2019-04-03T04:54:22.409Z,75.66
2019-04-03T04:56:51.834Z,75.76
2019-04-03T04:59:21.198Z,75.83
2019-04-03T05:01:50.536Z,76.13
2019-04-03T05:04:20.257Z,76.06
2019-04-03T05:06:49.573Z,76.18
2019-04-03T05:09:19.016Z,76.14
2019-04-03T05:11:48.266Z,76.27
2019-04-03T05:14:18.247Z,76.24
2019-04-03T05:16:47.794Z,76.39
2019-04-03T05:19:19.311Z,76.31
2019-04-03T05:21:48.348Z,76.31
2019-04-03T05:24:17.673Z,76.37
2019-04-03T05:26:46.884Z,76.28
2019-04-03T05:29:16.218Z,76.26
2019-04-03T05:31:45.698Z,76.19
2019-04-03T05:34:15.248Z,76.14
2019-04-03T05:36:44.575Z,76.20
2019-04-03T05:39:15.975Z,76.12
2019-04-03T05:41:45.606Z,75.93
2019-04-03T05:44:16.003Z,75.93
2019-04-03T05:46:45.417Z,75.75
2019-04-03T05:49:14.947Z,75.78
2019-04-03T05:51:44.574Z,75.60
2019-04-03T05:54:14.727Z,75.41
2019-04-03T05:56:44.478Z,75.23
2019-04-03T05:59:14.305Z,74.95
2019-04-03T06:01:46.364Z,74.53
2019-04-03T06:04:14.993Z,74.25
2019-04-03T06:06:46.456Z,74.05
2019-04-03T06:09:15.818Z,73.79
2019-04-03T06:11:46.049Z,73.61
2019-04-03T06:14:16.838Z,73.41
2019-04-03T06:16:46.695Z,73.37
2019-04-03T06:19:15.971Z,73.38
2019-04-03T06:21:46.124Z,73.15
2019-04-03T06:24:17.835Z,73.01
2019-04-03T06:26:46.966Z,72.73
2019-04-03T06:29:16.932Z,72.45
2019-04-03T06:31:47.660Z,72.05
2019-04-03T06:34:16.897Z,71.38
2019-04-03T06:36:46.183Z,71.00
2019-04-03T06:39:16.646Z,70.82
2019-04-03T06:41:45.873Z,70.14
2019-04-03T06:44:15.200Z,70.33
2019-04-03T06:46:44.558Z,70.30
2019-04-03T06:49:13.942Z,69.77
2019-04-03T06:51:43.600Z,69.88
2019-04-03T06:54:12.849Z,69.86
2019-04-03T06:56:42.511Z,69.67
2019-04-03T06:59:12.059Z,69.84
2019-04-03T07:01:42.388Z,69.41
2019-04-03T07:04:11.610Z,69.01
2019-04-03T07:06:44.305Z,68.63
2019-04-03T07:09:22.820Z,68.50
2019-04-03T07:11:44.267Z,67.56
2019-04-03T07:14:13.832Z,67.33
2019-04-03T07:16:43.368Z,66.77
2019-04-03T07:19:12.656Z,66.35
2019-04-03T07:21:42.177Z,66.82
2019-04-03T07:24:11.417Z,66.20
2019-04-03T07:26:40.730Z,66.29
2019-04-03T07:29:12.167Z,66.26
2019-04-03T07:31:41.623Z,65.81
2019-04-03T07:34:11.002Z,64.85
2019-04-03T07:36:41.479Z,65.38
2019-04-03T07:39:12.050Z,65.02
2019-04-03T07:41:41.702Z,65.41
2019-04-03T07:44:12.138Z,65.73
2019-04-03T07:46:41.910Z,65.00
2019-04-03T07:49:13.788Z,64.58
2019-04-03T07:51:43.255Z,64.47
2019-04-03T07:54:13.822Z,63.79
2019-04-03T07:56:43.160Z,63.66
2019-04-03T07:59:12.377Z,62.60
2019-04-03T08:01:41.881Z,62.09
2019-04-03T08:04:11.808Z,62.48
2019-04-03T08:06:41.402Z,63.08
2019-04-03T08:09:10.648Z,62.57
2019-04-03T08:11:41.047Z,60.83
2019-04-03T08:14:10.690Z,60.69
2019-04-03T08:16:42.150Z,61.00
2019-04-03T08:19:14.456Z,59.73
2019-04-03T08:21:43.760Z,59.52
2019-04-03T08:24:13.333Z,58.73
2019-04-03T08:26:42.578Z,58.72
2019-04-03T08:29:12.100Z,58.25
2019-04-03T08:31:44.192Z,56.25
2019-04-03T08:34:17.100Z,55.02
2019-04-03T08:36:45.187Z,55.74
2019-04-03T08:39:15.942Z,56.01
2019-04-03T08:41:45.491Z,56.12
2019-04-03T08:44:14.836Z,54.07
2019-04-03T08:46:45.908Z,53.82
2019-04-03T08:49:15.176Z,53.36
2019-04-03T08:51:45.927Z,52.58
2019-04-03T08:54:17.340Z,52.72
2019-04-03T08:56:48.996Z,51.20
2019-04-03T08:59:17.849Z,49.39
2019-04-03T09:01:48.250Z,50.14
2019-04-03T09:04:18.059Z,47.33
2019-04-03T09:06:47.367Z,49.08
2019-04-03T09:09:16.646Z,48.95
2019-04-03T09:11:47.268Z,48.98
2019-04-03T09:14:19.209Z,48.01
2019-04-03T09:16:47.457Z,47.95
2019-04-03T09:19:17.372Z,48.73
2019-04-03T09:21:50.071Z,47.99
2019-04-03T09:24:19.470Z,45.75
2019-04-03T09:26:48.775Z,47.36
2019-04-03T09:29:18.784Z,47.08
2019-04-03T09:31:50.653Z,49.16
2019-04-03T09:34:20.420Z,49.32
2019-04-03T09:36:49.919Z,49.36
2019-04-03T09:39:19.156Z,47.86
2019-04-03T09:41:50.971Z,47.51
2019-04-03T09:44:20.391Z,48.99
2019-04-03T09:46:49.734Z,48.93
2019-04-03T09:49:19.175Z,48.19
2019-04-03T09:51:49.785Z,49.92
2019-04-03T09:54:19.584Z,49.28
2019-04-03T09:56:57.946Z,47.17
2019-04-03T09:59:19.824Z,48.18
2019-04-03T10:01:49.370Z,49.43
2019-04-03T10:04:20.527Z,48.56
2019-04-03T10:06:49.603Z,47.97
2019-04-03T10:09:18.930Z,48.83
2019-04-03T10:11:48.767Z,48.67
2019-04-03T10:14:20.657Z,49.56
2019-04-03T10:16:51.889Z,49.66
2019-04-03T10:19:21.254Z,49.86
2019-04-03T10:21:53.305Z,48.38
2019-04-03T10:24:22.483Z,47.63
2019-04-03T10:26:52.048Z,46.95
2019-04-03T10:29:21.951Z,47.88
2019-04-03T10:31:54.952Z,47.97
2019-04-03T10:34:22.993Z,49.71
2019-04-03T10:36:52.236Z,49.77
2019-04-03T10:39:23.268Z,50.49
2019-04-03T10:41:52.844Z,51.79
2019-04-03T10:44:22.469Z,52.60
2019-04-03T10:46:52.913Z,52.55
2019-04-03T10:49:22.815Z,52.07
2019-04-03T10:51:52.407Z,51.98
2019-04-03T10:54:21.953Z,50.16
2019-04-03T10:56:52.705Z,51.16
2019-04-03T10:59:22.952Z,51.06
2019-04-03T11:01:52.587Z,49.94
2019-04-03T11:04:22.373Z,51.69
2019-04-03T11:06:51.598Z,51.50
2019-04-03T11:09:21.169Z,52.26
2019-04-03T11:11:50.560Z,51.05
2019-04-03T11:14:19.854Z,52.16
2019-04-03T11:16:49.419Z,51.80
2019-04-03T11:19:20.190Z,52.42
2019-04-03T11:21:49.748Z,52.27
2019-04-03T11:24:19.156Z,52.84
2019-04-03T11:26:50.805Z,51.94
2019-04-03T11:29:20.801Z,53.32
2019-04-03T11:31:50.352Z,53.49
2019-04-03T11:34:19.965Z,53.23
2019-04-03T11:36:49.597Z,53.62
2019-04-03T11:39:20.195Z,54.25
2019-04-03T11:41:49.460Z,54.34
2019-04-03T11:44:18.893Z,54.23
2019-04-03T11:46:48.417Z,53.75
2019-04-03T11:49:20.015Z,52.84
2019-04-03T11:51:49.009Z,54.87
2019-04-03T11:54:18.594Z,54.87
2019-04-03T11:56:48.035Z,53.70
2019-04-03T11:59:18.005Z,54.27
2019-04-03T12:01:47.937Z,53.63
2019-04-03T12:04:17.181Z,53.82
2019-04-03T12:06:46.473Z,51.96
2019-04-03T12:09:16.251Z,51.39
2019-04-03T12:11:45.934Z,52.43
2019-04-03T12:14:17.096Z,51.67
2019-04-03T12:16:46.198Z,52.20
2019-04-03T12:19:15.428Z,51.00
2019-04-03T12:21:44.858Z,51.29
2019-04-03T12:24:14.390Z,49.53
2019-04-03T12:26:44.331Z,50.72
2019-04-03T12:29:14.064Z,51.05
2019-04-03T12:31:43.746Z,52.82
2019-04-03T12:34:13.223Z,53.62
2019-04-03T12:36:45.162Z,54.00
2019-04-03T12:39:16.645Z,54.58
2019-04-03T12:41:46.029Z,54.60
2019-04-03T12:44:15.595Z,55.19
2019-04-03T12:46:45.214Z,54.68
2019-04-03T12:49:14.452Z,54.42
2019-04-03T12:51:44.547Z,53.66
2019-04-03T12:54:14.152Z,52.85
2019-04-03T12:56:43.907Z,52.49
2019-04-03T12:59:13.215Z,52.71
2019-04-03T13:01:42.482Z,51.68
2019-04-03T13:04:12.173Z,51.11
2019-04-03T13:06:42.474Z,51.89
2019-04-03T13:09:12.920Z,52.22
2019-04-03T13:11:42.173Z,52.71
2019-04-03T13:14:23.423Z,53.17
2019-04-03T13:16:42.660Z,53.41
2019-04-03T13:19:16.168Z,51.44
2019-04-03T13:21:45.519Z,51.33
2019-04-03T13:24:17.100Z,52.02
2019-04-03T13:26:45.953Z,53.01
2019-04-03T13:29:15.621Z,52.56
2019-04-03T13:31:47.072Z,53.02
2019-04-03T13:34:16.591Z,54.50
2019-04-03T13:36:50.364Z,53.43
2019-04-03T13:39:18.724Z,52.57
2019-04-03T13:41:49.309Z,51.63
2019-04-03T13:44:18.903Z,52.09
2019-04-03T13:46:48.131Z,52.47
2019-04-03T13:49:18.572Z,52.57
2019-04-03T13:51:48.934Z,52.82
2019-04-03T13:54:18.328Z,52.30
2019-04-03T13:56:48.948Z,52.24
2019-04-03T13:59:18.656Z,51.55
2019-04-03T14:01:47.936Z,51.04
2019-04-03T14:04:17.288Z,51.80
2019-04-03T14:06:46.535Z,50.59
2019-04-03T14:09:17.681Z,51.06
2019-04-03T14:11:47.051Z,51.05
2019-04-03T14:14:16.706Z,50.95
2019-04-03T14:16:46.746Z,51.55
2019-04-03T14:19:16.206Z,51.73
2019-04-03T14:21:46.221Z,52.23
2019-04-03T14:24:15.774Z,52.26
2019-04-03T14:26:46.380Z,53.49
2019-04-03T14:29:16.804Z,53.41
2019-04-03T14:31:48.961Z,52.80
2019-04-03T14:34:19.940Z,52.89
2019-04-03T14:36:50.483Z,52.11
2019-04-03T14:39:20.512Z,53.48
2019-04-03T14:41:53.176Z,54.58
2019-04-03T14:44:21.777Z,53.84
2019-04-03T14:46:51.707Z,53.47
2019-04-03T14:49:22.598Z,53.73
2019-04-03T14:51:51.917Z,54.13
2019-04-03T14:54:23.581Z,54.68
2019-04-03T14:56:52.618Z,53.85
2019-04-03T14:59:21.998Z,54.27
2019-04-03T15:01:52.321Z,54.55
2019-04-03T15:04:22.325Z,53.89
2019-04-03T15:07:01.509Z,53.87
2019-04-03T15:09:24.422Z,54.46
2019-04-03T15:11:53.636Z,53.21
2019-04-03T15:14:23.115Z,53.95
2019-04-03T15:16:53.023Z,54.43
2019-04-03T15:19:23.658Z,55.09
2019-04-03T15:21:57.131Z,54.97
2019-04-03T15:24:24.683Z,54.81
2019-04-03T15:26:54.920Z,54.96
2019-04-03T15:29:26.272Z,54.59
2019-04-03T15:31:56.320Z,55.21
2019-04-03T15:34:27.689Z,55.70
2019-04-03T15:36:57.296Z,55.28
2019-04-03T15:39:26.662Z,55.49
2019-04-03T15:41:57.768Z,55.56
2019-04-03T15:44:28.106Z,55.63
2019-04-03T15:47:00.783Z,54.81
2019-04-03T15:49:29.939Z,54.82
2019-04-03T15:51:59.198Z,54.75
2019-04-03T15:54:31.320Z,55.05
2019-04-03T15:57:00.110Z,55.64
2019-04-03T15:59:30.641Z,54.82
2019-04-03T16:02:02.123Z,55.87
2019-04-03T16:04:33.997Z,55.56
2019-04-03T16:07:05.117Z,56.04
2019-04-03T16:09:34.959Z,56.25
2019-04-03T16:12:06.268Z,56.33
2019-04-03T16:14:35.898Z,56.21
2019-04-03T16:17:05.631Z,56.45
2019-04-03T16:19:35.266Z,56.75
2019-04-03T16:22:06.161Z,56.88
2019-04-03T16:24:35.395Z,57.25
2019-04-03T16:27:07.723Z,57.15
2019-04-03T16:29:36.251Z,57.56
2019-04-03T16:32:05.685Z,57.48
2019-04-03T16:34:34.953Z,57.90
2019-04-03T16:37:04.214Z,57.93
2019-04-03T16:39:33.741Z,58.42
2019-04-03T16:42:03.015Z,58.47
2019-04-03T16:44:32.589Z,58.42
2019-04-03T16:47:01.882Z,58.45
2019-04-03T16:49:31.593Z,58.72
2019-04-03T16:52:04.883Z,58.51
2019-04-03T16:54:33.690Z,58.81
2019-04-03T16:57:03.858Z,59.16
2019-04-03T16:59:35.411Z,59.34
2019-04-03T17:02:04.269Z,59.50
2019-04-03T17:04:35.652Z,59.43
2019-04-03T17:07:05.323Z,59.95
2019-04-03T17:09:37.451Z,59.76
2019-04-03T17:12:05.629Z,60.11
2019-04-03T17:14:35.362Z,60.13
2019-04-03T17:17:04.990Z,60.34
2019-04-03T17:19:34.251Z,60.50
2019-04-03T17:22:06.585Z,60.68
2019-04-03T17:24:42.308Z,60.98
2019-04-03T17:27:06.054Z,61.05
2019-04-03T17:29:35.459Z,61.58
2019-04-03T17:32:07.910Z,61.44
2019-04-03T17:34:42.046Z,61.58
2019-04-03T17:37:09.112Z,61.45
2019-04-03T17:39:39.915Z,61.65
2019-04-03T17:42:09.226Z,61.57
2019-04-03T17:44:38.642Z,61.60
2019-04-03T17:47:08.280Z,61.58
2019-04-03T17:49:37.584Z,61.69
2019-04-03T17:52:07.466Z,61.90
2019-04-03T17:54:38.498Z,62.26
2019-04-03T17:57:08.124Z,62.10
2019-04-03T17:59:37.347Z,62.27
2019-04-03T18:02:06.956Z,62.58
2019-04-03T18:04:36.886Z,62.62
2019-04-03T18:07:06.459Z,62.74
2019-04-03T18:09:37.016Z,63.04
2019-04-03T18:12:06.295Z,62.94
2019-04-03T18:14:35.690Z,63.13
2019-04-03T18:17:05.307Z,63.40
2019-04-03T18:19:37.808Z,63.53
2019-04-03T18:22:05.914Z,63.45
2019-04-03T18:24:36.889Z,63.59
2019-04-03T18:27:06.654Z,63.49
2019-04-03T18:29:37.533Z,63.59
2019-04-03T18:32:07.579Z,63.18
2019-04-03T18:34:37.190Z,62.26
2019-04-03T18:37:07.536Z,62.28
2019-04-03T18:39:40.250Z,62.89
2019-04-03T18:42:09.302Z,63.23
2019-04-03T18:44:38.690Z,63.17
2019-04-03T18:47:09.593Z,63.20
2019-04-03T18:49:39.949Z,63.12
2019-04-03T18:52:09.689Z,63.40
2019-04-03T18:54:42.148Z,62.74
2019-04-03T18:57:11.061Z,63.17
2019-04-03T18:59:40.343Z,63.36
2019-04-03T19:02:10.260Z,63.82
2019-04-03T19:04:39.500Z,64.13
2019-04-03T19:07:09.384Z,64.38
2019-04-03T19:09:38.692Z,64.39
2019-04-03T19:12:08.952Z,64.38
2019-04-03T19:14:39.223Z,64.14
2019-04-03T19:17:09.288Z,63.64
2019-04-03T19:19:40.383Z,63.29
2019-04-03T19:22:10.323Z,63.40
2019-04-03T19:24:41.298Z,63.44
2019-04-03T19:27:12.379Z,62.97
2019-04-03T19:29:41.832Z,62.46
2019-04-03T19:32:12.238Z,62.63
2019-04-03T19:34:42.731Z,62.74
2019-04-03T19:37:12.442Z,62.95
2019-04-03T19:39:42.150Z,63.08
2019-04-03T19:42:13.162Z,63.13
2019-04-03T19:44:42.721Z,63.23
2019-04-03T19:47:12.032Z,63.39
2019-04-03T19:49:41.359Z,63.89
2019-04-03T19:52:11.365Z,63.93
2019-04-03T19:54:40.575Z,63.88
2019-04-03T19:57:10.175Z,64.14
2019-04-03T19:59:40.784Z,64.15
2019-04-03T20:02:10.257Z,64.30
2019-04-03T20:04:40.036Z,64.58
2019-04-03T20:07:09.290Z,64.70
2019-04-03T20:09:38.883Z,64.71
2019-04-03T20:12:08.254Z,64.92
2019-04-03T20:14:37.516Z,64.81
2019-04-03T20:17:06.774Z,65.32
2019-04-03T20:19:36.209Z,65.34
2019-04-03T20:22:07.063Z,65.63
2019-04-03T20:24:37.144Z,65.75
2019-04-03T20:27:07.710Z,65.85
2019-04-03T20:29:37.146Z,66.05
2019-04-03T20:32:07.139Z,66.21
2019-04-03T20:34:37.252Z,66.48
2019-04-03T20:37:06.516Z,66.69
2019-04-03T20:39:36.167Z,66.87
2019-04-03T20:42:08.034Z,67.28
2019-04-03T20:44:38.934Z,67.54
2019-04-03T20:47:08.784Z,68.05
2019-04-03T20:49:38.499Z,68.20
2019-04-03T20:52:10.871Z,68.39
2019-04-03T20:54:39.456Z,68.81
2019-04-03T20:57:08.744Z,68.72
2019-04-03T20:59:37.969Z,69.35
2019-04-03T21:02:08.258Z,69.46
2019-04-03T21:04:38.175Z,69.76
2019-04-03T21:07:07.805Z,70.02
2019-04-03T21:09:37.067Z,70.35
2019-04-03T21:12:06.467Z,70.47
2019-04-03T21:14:36.015Z,70.90
2019-04-03T21:17:05.371Z,71.28
2019-04-03T21:19:34.880Z,71.62
2019-04-03T21:22:04.639Z,71.95
2019-04-03T21:24:34.277Z,72.11
2019-04-03T21:27:06.863Z,72.25
2019-04-03T21:29:36.448Z,72.40
2019-04-03T21:32:05.870Z,72.52
2019-04-03T21:34:35.097Z,72.99
2019-04-03T21:37:04.369Z,73.27
2019-04-03T21:39:34.050Z,73.35
2019-04-03T21:42:03.662Z,73.42
2019-04-03T21:44:32.913Z,73.48
2019-04-03T21:47:02.172Z,73.56
2019-04-03T21:49:31.842Z,73.57
2019-04-03T21:52:01.146Z,73.64
2019-04-03T21:54:30.376Z,73.64
2019-04-03T21:56:59.629Z,73.90
2019-04-03T21:59:28.882Z,74.11
2019-04-03T22:01:59.901Z,74.20
2019-04-03T22:04:29.435Z,74.07
2019-04-03T22:06:58.997Z,74.08
2019-04-03T22:09:28.826Z,73.96
2019-04-03T22:11:59.243Z,73.71
2019-04-03T22:14:28.528Z,73.56
2019-04-03T22:16:57.809Z,73.68
2019-04-03T22:19:27.597Z,73.45
2019-04-03T22:21:57.578Z,73.48
2019-04-03T22:24:26.801Z,73.46
2019-04-03T22:26:56.715Z,73.56
2019-04-03T22:29:25.954Z,73.41
2019-04-03T22:31:55.532Z,73.45
2019-04-03T22:34:25.157Z,73.44
2019-04-03T22:36:54.684Z,73.43
2019-04-03T22:39:24.276Z,73.65
2019-04-03T22:41:53.898Z,73.68
2019-04-03T22:44:23.350Z,73.59
2019-04-03T22:46:54.011Z,73.43
2019-04-03T22:49:23.912Z,73.30
2019-04-03T22:51:53.326Z,73.27
2019-04-03T22:54:22.641Z,73.17
2019-04-03T22:56:51.885Z,72.93
2019-04-03T22:59:24.308Z,72.72
2019-04-03T23:01:52.857Z,72.75
2019-04-03T23:04:22.240Z,72.96
2019-04-03T23:06:52.803Z,72.89
2019-04-03T23:09:24.675Z,72.95
2019-04-03T23:11:53.419Z,72.80
2019-04-03T23:14:24.364Z,72.75
2019-04-03T23:16:54.115Z,72.39
2019-04-03T23:19:23.590Z,71.99
2019-04-03T23:21:55.431Z,71.82
2019-04-03T23:24:28.530Z,71.79
2019-04-03T23:26:57.161Z,71.67
2019-04-03T23:29:26.462Z,71.43
2019-04-03T23:31:56.715Z,71.43
2019-04-03T23:34:26.415Z,71.25
2019-04-03T23:36:55.678Z,70.77
2019-04-03T23:39:28.022Z,70.58
2019-04-03T23:41:58.002Z,70.26
2019-04-03T23:44:28.974Z,70.22
2019-04-03T23:46:58.305Z,70.08
2019-04-03T23:49:28.040Z,69.74
2019-04-03T23:51:59.535Z,69.48
2019-04-03T23:54:29.401Z,69.53
2019-04-03T23:56:58.653Z,69.40
2019-04-03T23:59:30.058Z,69.62
